Orbital elements of FENGYUN 1C DEB
| Launched | 9 May 1999 |
| Flight ended | – |
| Launch site | Taiyuan Space Center, PRC |
| Owner | People's Republic of China |
| NORAD ID | 30726 |
| Date fetched |
Epoch osculation |
Inc. [°] |
Ecc. | RA asc node [hr] |
Arg Peri. [°] |
Mean anom [°] |
Mean motion [rev/day] |
Abs. mag |
| Date fetched |
Epoch osculation |
Inc. [°] |
Ecc. | RA asc node [hr] |
Arg Peri. [°] |
Mean anom [°] |
Mean motion [rev/day] |
Abs. mag |
| 2026 May 07 17:58 | 2026 May 04 23:05:43 | 99.2668 | 0.00784 | 9.0606 | 186.1740 | 203.8890 | 14.09885 | – |
| 2026 May 06 17:57 | 2026 May 04 23:05:43 | 99.2668 | 0.00784 | 9.0606 | 186.1740 | 203.8890 | 14.09885 | – |
| 2026 May 05 17:57 | 2026 May 04 23:05:43 | 99.2668 | 0.00784 | 9.0606 | 186.1740 | 203.8890 | 14.09885 | – |
| 2026 May 04 17:57 | 2026 Apr 30 12:22:16 | 99.2676 | 0.00780 | 8.7553 | 198.6096 | 203.8890 | 14.09885 | – |
| 2026 May 03 17:57 | 2026 Apr 30 12:22:16 | 99.2676 | 0.00780 | 8.7553 | 198.6096 | 203.8890 | 14.09885 | – |
| 2026 May 02 17:57 | 2026 Apr 30 12:22:16 | 99.2676 | 0.00780 | 8.7553 | 198.6096 | 203.8890 | 14.09885 | – |
| 2026 May 01 17:56 | 2026 Apr 30 12:22:16 | 99.2676 | 0.00780 | 8.7553 | 198.6096 | 203.8890 | 14.09885 | – |
| 2026 Apr 30 17:56 | 2026 Apr 30 12:22:16 | 99.2676 | 0.00780 | 8.7553 | 198.6096 | 203.8890 | 14.09885 | – |
| 2026 Apr 29 17:57 | 2026 Apr 21 23:24:31 | 99.2683 | 0.00774 | 8.1690 | 222.6527 | 203.8890 | 14.09885 | – |
| 2026 Apr 28 17:56 | 2026 Apr 21 23:24:31 | 99.2683 | 0.00774 | 8.1690 | 222.6527 | 203.8890 | 14.09885 | – |
| 2026 Apr 27 17:58 | 2026 Apr 21 23:24:31 | 99.2683 | 0.00774 | 8.1690 | 222.6527 | 203.8890 | 14.09885 | – |
| 2026 Apr 26 17:58 | 2026 Apr 21 23:24:31 | 99.2683 | 0.00774 | 8.1690 | 222.6527 | 203.8890 | 14.09885 | – |
| 2026 Apr 25 17:58 | 2026 Apr 21 23:24:31 | 99.2683 | 0.00774 | 8.1690 | 222.6527 | 203.8890 | 14.09885 | – |
| 2026 Apr 24 17:59 | 2026 Apr 21 23:24:31 | 99.2683 | 0.00774 | 8.1690 | 222.6527 | 203.8890 | 14.09885 | – |
| 2026 Apr 23 17:57 | 2026 Apr 18 00:09:02 | 99.2686 | 0.00770 | 7.8965 | 233.9478 | 203.8890 | 14.09885 | – |
| 2026 Apr 22 17:57 | 2026 Apr 18 00:09:02 | 99.2686 | 0.00770 | 7.8965 | 233.9478 | 203.8890 | 14.09885 | – |
| 2026 Apr 21 17:57 | 2026 Apr 18 00:09:02 | 99.2686 | 0.00770 | 7.8965 | 233.9478 | 203.8890 | 14.09885 | – |
| 2026 Apr 20 17:57 | 2026 Apr 18 00:09:02 | 99.2686 | 0.00770 | 7.8965 | 233.9478 | 203.8890 | 14.09885 | – |
| 2026 Apr 19 17:58 | 2026 Apr 18 00:09:02 | 99.2686 | 0.00770 | 7.8965 | 233.9478 | 203.8890 | 14.09885 | – |
| 2026 Apr 18 17:56 | 2026 Apr 12 23:05:31 | 99.2686 | 0.00768 | 7.5501 | 248.2526 | 203.8890 | 14.09885 | – |
| 2026 Apr 16 17:57 | 2026 Apr 12 23:05:31 | 99.2686 | 0.00768 | 7.5501 | 248.2526 | 203.8890 | 14.09885 | – |
| 2026 Apr 14 17:57 | 2026 Apr 12 23:05:31 | 99.2686 | 0.00768 | 7.5501 | 248.2526 | 203.8890 | 14.09885 | – |
| 2026 Apr 13 17:57 | 2026 Apr 12 23:05:31 | 99.2686 | 0.00768 | 7.5501 | 248.2526 | 203.8890 | 14.09885 | – |
| 2026 Apr 12 17:57 | 2026 Apr 08 12:22:11 | 99.2690 | 0.00767 | 7.2449 | 260.9049 | 203.8890 | 14.09885 | – |
| 2026 Apr 11 17:57 | 2026 Apr 08 12:22:11 | 99.2690 | 0.00767 | 7.2449 | 260.9049 | 203.8890 | 14.09885 | – |
| 2026 Apr 10 17:58 | 2026 Apr 08 12:22:11 | 99.2690 | 0.00767 | 7.2449 | 260.9049 | 203.8890 | 14.09885 | – |